Time;durP1;ratioP1;P1;durP2;ratioP2;P2;SDS_P1;SDS_P2;PMS_P1;PMS_P2;Temp;Humidity;BMP_temperature;BMP_pressure;BME280_temperature;BME280_humidity;BME280_pressure;Samples;Min_cycle;Max_cycle;Signal;HPM_P1;HPM_P2
2021/04/09 00:02:10;;;;;;;24.60;8.90;;;;;;;;;;5057372;28;20560;-56
2021/04/09 00:04:37;;;;;;;25.27;8.07;;;;;;;;;;5061106;28;20135;-58
2021/04/09 00:07:05;;;;;;;24.35;8.18;;;;;;;;;;5065413;28;20036;-56
2021/04/09 00:09:32;;;;;;;25.38;9.68;;;;;;;;;;5059061;28;20063;-57
2021/04/09 00:11:58;;;;;;;25.58;9.80;;;;;;;;;;5063984;28;20102;-57
2021/04/09 00:14:24;;;;;;;27.23;9.65;;;;;;;;;;5064086;28;20130;-57
2021/04/09 00:16:51;;;;;;;30.98;9.43;;;;;;;;;;5063999;28;20094;-57
2021/04/09 00:19:22;;;;;;;15.48;7.68;;;;;;;;;;5063120;28;20068;-58
2021/04/09 00:21:48;;;;;;;30.98;10.98;;;;;;;;;;5063519;28;20061;-57
2021/04/09 00:24:15;;;;;;;30.35;10.23;;;;;;;;;;5064646;28;20128;-54
2021/04/09 00:26:41;;;;;;;20.20;9.10;;;;;;;;;;5062064;28;20468;-57
2021/04/09 00:29:07;;;;;;;22.00;8.85;;;;;;;;;;5058153;28;20076;-57
2021/04/09 00:31:34;;;;;;;22.65;8.05;;;;;;;;;;5067895;28;20468;-57
2021/04/09 00:34:00;;;;;;;17.55;6.55;;;;;;;;;;5062825;28;20036;-57
2021/04/09 00:36:27;;;;;;;16.73;6.95;;;;;;;;;;5064566;28;20055;-57
2021/04/09 00:38:54;;;;;;;18.77;6.22;;;;;;;;;;5065070;28;20044;-57
2021/04/09 00:41:26;;;;;;;15.27;4.78;;;;;;;;;;5062519;28;20500;-58
2021/04/09 00:43:52;;;;;;;17.83;6.07;;;;;;;;;;5064850;28;20040;-58
2021/04/09 00:46:18;;;;;;;10.55;4.20;;;;;;;;;;5061936;28;20051;-57
2021/04/09 00:48:46;;;;;;;11.82;3.95;;;;;;;;;;5060060;28;20087;-57
2021/04/09 00:51:13;;;;;;;10.75;3.78;;;;;;;;;;5058289;28;20049;-56
2021/04/09 00:53:40;;;;;;;12.82;4.43;;;;;;;;;;5048639;28;20041;-57
2021/04/09 00:56:07;;;;;;;10.27;4.75;;;;;;;;;;5063206;28;20508;-60
2021/04/09 00:58:33;;;;;;;17.80;5.37;;;;;;;;;;5058991;28;20452;-58
2021/04/09 01:01:00;;;;;;;15.38;5.90;;;;;;;;;;5061366;28;20041;-56
2021/04/09 01:03:26;;;;;;;23.15;5.50;;;;;;;;;;5059584;28;20402;-57
2021/04/09 01:05:53;;;;;;;19.63;5.65;;;;;;;;;;5064028;28;20411;-56
2021/04/09 01:08:20;;;;;;;21.13;6.82;;;;;;;;;;5060466;28;20448;-55
2021/04/09 01:10:46;;;;;;;17.67;5.85;;;;;;;;;;5062046;28;20044;-56
2021/04/09 01:13:12;;;;;;;21.58;6.78;;;;;;;;;;5059868;28;20049;-57
2021/04/09 01:15:38;;;;;;;23.25;8.13;;;;;;;;;;5057984;28;20052;-56
2021/04/09 01:18:05;;;;;;;24.83;7.85;;;;;;;;;;5056123;28;20033;-57
2021/04/09 01:20:40;;;;;;;21.17;7.80;;;;;;;;;;5060014;28;20824;-57
2021/04/09 01:23:06;;;;;;;28.48;9.65;;;;;;;;;;5061671;28;20049;-57
2021/04/09 01:25:41;;;;;;;27.38;7.85;;;;;;;;;;5061719;28;20186;-58
2021/04/09 01:28:14;;;;;;;26.25;7.45;;;;;;;;;;5063438;28;20056;-57
2021/04/09 01:30:40;;;;;;;26.38;7.80;;;;;;;;;;5065777;28;20045;-57
2021/04/09 01:33:06;;;;;;;28.73;8.48;;;;;;;;;;5067752;28;20086;-57
2021/04/09 01:35:35;;;;;;;32.35;8.40;;;;;;;;;;5060210;28;20083;-55
2021/04/09 01:38:03;;;;;;;25.80;8.00;;;;;;;;;;5065028;28;20036;-58
2021/04/09 01:40:36;;;;;;;22.45;7.22;;;;;;;;;;5058262;28;20106;-57
2021/04/09 01:43:03;;;;;;;16.85;6.05;;;;;;;;;;5062243;28;20037;-56
2021/04/09 01:45:30;;;;;;;29.55;7.03;;;;;;;;;;5059815;28;20489;-56
2021/04/09 01:47:56;;;;;;;37.28;8.75;;;;;;;;;;5055357;28;20511;-56
2021/04/09 01:50:24;;;;;;;26.40;8.18;;;;;;;;;;5067658;28;20094;-57
2021/04/09 01:52:51;;;;;;;32.00;8.10;;;;;;;;;;5058413;28;20045;-56
2021/04/09 01:55:18;;;;;;;28.48;8.60;;;;;;;;;;5063780;28;20063;-58
2021/04/09 01:57:45;;;;;;;28.50;7.38;;;;;;;;;;5060790;28;20064;-56
2021/04/09 02:00:13;;;;;;;26.58;6.13;;;;;;;;;;5057615;28;20053;-57
2021/04/09 02:02:42;;;;;;;28.58;5.95;;;;;;;;;;5062731;28;20037;-57
2021/04/09 02:05:09;;;;;;;35.05;8.13;;;;;;;;;;5061155;28;20099;-58
2021/04/09 02:07:36;;;;;;;18.30;5.88;;;;;;;;;;5061272;28;20041;-54
2021/04/09 02:10:03;;;;;;;24.10;6.38;;;;;;;;;;5051883;28;20090;-57
2021/04/09 02:12:30;;;;;;;34.85;9.35;;;;;;;;;;5055524;28;20032;-56
2021/04/09 02:14:57;;;;;;;23.98;6.30;;;;;;;;;;5062985;28;20036;-58
2021/04/09 02:17:23;;;;;;;28.75;6.88;;;;;;;;;;5061006;28;20036;-55
2021/04/09 02:19:50;;;;;;;28.77;7.28;;;;;;;;;;5064700;28;20086;-54
2021/04/09 02:22:18;;;;;;;27.98;6.95;;;;;;;;;;5063212;28;20044;-57
2021/04/09 02:24:48;;;;;;;33.20;7.55;;;;;;;;;;5067820;28;20040;-56
2021/04/09 02:27:15;;;;;;;24.25;6.70;;;;;;;;;;5066081;28;20093;-54
2021/04/09 02:29:43;;;;;;;20.58;5.47;;;;;;;;;;5067449;28;20063;-53
2021/04/09 02:32:16;;;;;;;19.55;5.93;;;;;;;;;;5066553;28;20041;-57
2021/04/09 02:34:42;;;;;;;26.38;7.30;;;;;;;;;;5068553;28;20036;-56
2021/04/09 02:37:08;;;;;;;28.73;5.93;;;;;;;;;;5064612;28;20041;-56
2021/04/09 02:39:38;;;;;;;17.30;5.70;;;;;;;;;;5067770;28;20480;-55
2021/04/09 02:42:06;;;;;;;26.77;6.78;;;;;;;;;;5065261;28;20118;-57
2021/04/09 02:44:33;;;;;;;20.95;4.85;;;;;;;;;;5065928;28;20049;-57
2021/04/09 02:47:13;;;;;;;25.35;6.22;;;;;;;;;;5067530;28;20113;-55
2021/04/09 02:49:46;;;;;;;28.10;6.80;;;;;;;;;;5068316;28;20094;-57
2021/04/09 02:52:14;;;;;;;23.98;5.32;;;;;;;;;;5065940;28;20071;-56
2021/04/09 02:54:40;;;;;;;;;;;;;;;;;;5067015;28;20067;-57
2021/04/09 02:57:08;;;;;;;22.13;4.70;;;;;;;;;;5068546;28;19929;-56
2021/04/09 02:59:35;;;;;;;22.67;5.93;;;;;;;;;;5065897;28;20114;-56
2021/04/09 03:02:01;;;;;;;23.17;4.47;;;;;;;;;;5067410;28;20504;-56
2021/04/09 03:04:30;;;;;;;17.25;4.63;;;;;;;;;;5065249;28;20044;-55
2021/04/09 03:06:57;;;;;;;18.92;4.55;;;;;;;;;;5063387;28;20500;-57
2021/04/09 03:09:24;;;;;;;17.75;4.13;;;;;;;;;;5064987;28;20075;-56
2021/04/09 03:11:51;;;;;;;13.65;3.80;;;;;;;;;;5066683;28;20049;-56
2021/04/09 03:14:18;;;;;;;13.18;3.38;;;;;;;;;;5063159;28;20053;-57
2021/04/09 03:16:49;;;;;;;15.52;3.60;;;;;;;;;;5065182;28;20511;-56
2021/04/09 03:19:15;;;;;;;6.90;2.13;;;;;;;;;;5065644;28;20571;-53
2021/04/09 03:21:42;;;;;;;11.68;2.20;;;;;;;;;;5063289;28;20140;-56
2021/04/09 03:24:08;;;;;;;6.38;2.20;;;;;;;;;;5067674;28;20569;-55
2021/04/09 03:26:34;;;;;;;9.80;2.67;;;;;;;;;;5065371;28;20040;-56
2021/04/09 03:29:01;;;;;;;7.85;2.10;;;;;;;;;;5039345;28;20059;-57
2021/04/09 03:31:27;;;;;;;13.35;2.10;;;;;;;;;;5044518;28;20042;-56
2021/04/09 03:33:53;;;;;;;7.45;1.90;;;;;;;;;;5045464;28;20049;-56
2021/04/09 03:36:20;;;;;;;6.55;1.77;;;;;;;;;;5040571;28;20052;-57
2021/04/09 03:38:46;;;;;;;8.10;1.65;;;;;;;;;;5044793;28;20045;-53
2021/04/09 03:41:12;;;;;;;10.02;2.22;;;;;;;;;;5048107;28;20045;-57
2021/04/09 03:43:39;;;;;;;18.20;2.13;;;;;;;;;;5042215;28;20132;-56
2021/04/09 03:46:05;;;;;;;12.27;1.95;;;;;;;;;;5042731;28;20038;-56
2021/04/09 03:48:31;;;;;;;10.25;2.15;;;;;;;;;;5045416;28;20134;-55
2021/04/09 03:50:58;;;;;;;9.88;2.20;;;;;;;;;;5042554;28;20049;-54
2021/04/09 03:56:49;;;;;;;3.83;1.45;;;;;;;;;;5044893;28;20041;-56
2021/04/09 03:59:15;;;;;;;6.78;1.60;;;;;;;;;;5047153;28;20112;-58
2021/04/09 04:01:42;;;;;;;10.30;1.50;;;;;;;;;;5047615;28;20044;-56
2021/04/09 04:04:09;;;;;;;8.07;1.58;;;;;;;;;;5046816;28;20055;-57
2021/04/09 04:06:34;;;;;;;7.95;1.65;;;;;;;;;;5047683;28;20585;-57
2021/04/09 04:09:01;;;;;;;6.68;1.40;;;;;;;;;;5044508;28;20103;-56
2021/04/09 04:11:28;;;;;;;6.80;1.70;;;;;;;;;;5047207;28;20045;-58
2021/04/09 04:13:55;;;;;;;7.68;1.35;;;;;;;;;;5049409;28;20041;-57
2021/04/09 04:16:23;;;;;;;4.45;1.50;;;;;;;;;;5046473;28;20037;-53
2021/04/09 04:18:50;;;;;;;3.80;1.10;;;;;;;;;;5048867;28;20425;-57
2021/04/09 04:21:16;;;;;;;6.15;1.42;;;;;;;;;;5032009;28;20090;-56
2021/04/09 04:23:43;;;;;;;4.68;1.38;;;;;;;;;;5045406;28;20132;-55
2021/04/09 04:26:09;;;;;;;8.85;1.48;;;;;;;;;;5042909;28;20076;-57
2021/04/09 04:28:36;;;;;;;8.57;1.52;;;;;;;;;;5043694;28;20531;-55
2021/04/09 04:31:03;;;;;;;7.10;1.20;;;;;;;;;;5038904;28;20688;-57
2021/04/09 04:33:29;;;;;;;9.60;1.65;;;;;;;;;;5039296;28;20094;-57
2021/04/09 04:35:55;;;;;;;7.82;2.00;;;;;;;;;;5041137;28;20091;-57
2021/04/09 04:38:21;;;;;;;10.45;1.70;;;;;;;;;;5043720;28;20112;-58
2021/04/09 04:40:49;;;;;;;6.50;1.60;;;;;;;;;;5049758;28;20500;-55
2021/04/09 04:43:15;;;;;;;9.50;1.73;;;;;;;;;;5039376;28;20052;-56
2021/04/09 04:45:42;;;;;;;8.73;1.80;;;;;;;;;;5035836;28;20068;-53
2021/04/09 04:48:08;;;;;;;11.10;1.80;;;;;;;;;;5043399;28;20045;-57
2021/04/09 04:50:35;;;;;;;5.53;1.80;;;;;;;;;;5048177;28;20043;-56
2021/04/09 04:53:03;;;;;;;7.53;1.50;;;;;;;;;;5046944;28;20057;-54
2021/04/09 04:55:30;;;;;;;10.73;1.73;;;;;;;;;;5041060;28;20044;-55
2021/04/09 04:57:56;;;;;;;9.48;1.63;;;;;;;;;;5045012;28;20045;-56
2021/04/09 05:00:24;;;;;;;5.13;1.40;;;;;;;;;;5041972;28;20509;-57
2021/04/09 05:02:50;;;;;;;;;;;;;;;;;;5048606;28;20059;-54
2021/04/09 05:05:17;;;;;;;4.95;1.80;;;;;;;;;;5047989;28;19921;-56
2021/04/09 05:07:43;;;;;;;6.03;1.50;;;;;;;;;;5045378;28;20038;-55
2021/04/09 05:10:10;;;;;;;7.93;1.45;;;;;;;;;;5045466;28;20049;-56
2021/04/09 05:12:36;;;;;;;11.35;1.80;;;;;;;;;;5042414;28;20049;-55
2021/04/09 05:15:04;;;;;;;;;;;;;;;;;;5044519;28;20049;-54
2021/04/09 05:17:30;;;;;;;11.35;2.20;;;;;;;;;;5044113;28;19975;-56
2021/04/09 05:19:56;;;;;;;6.78;1.33;;;;;;;;;;5046244;28;20044;-56
2021/04/09 05:22:23;;;;;;;8.48;1.73;;;;;;;;;;5046526;28;20128;-55
2021/04/09 05:24:49;;;;;;;17.48;2.10;;;;;;;;;;5038796;28;20042;-55
2021/04/09 05:27:15;;;;;;;9.65;2.03;;;;;;;;;;5042003;28;20075;-57
2021/04/09 05:29:42;;;;;;;10.20;2.13;;;;;;;;;;5057965;28;20048;-57
2021/04/09 05:32:09;;;;;;;10.60;2.00;;;;;;;;;;5061264;28;20049;-58
2021/04/09 05:34:35;;;;;;;8.30;1.80;;;;;;;;;;5059884;28;20072;-56
2021/04/09 05:37:03;;;;;;;12.70;2.10;;;;;;;;;;5060980;28;20044;-58
2021/04/09 05:39:29;;;;;;;9.15;1.60;;;;;;;;;;5063173;28;20071;-57
2021/04/09 05:41:55;;;;;;;12.32;2.28;;;;;;;;;;5062922;28;20037;-57
2021/04/09 05:44:22;;;;;;;8.85;1.65;;;;;;;;;;5062433;28;20044;-56
2021/04/09 05:46:48;;;;;;;10.95;2.10;;;;;;;;;;5061479;28;20103;-58
2021/04/09 05:49:15;;;;;;;10.10;1.90;;;;;;;;;;5061071;28;20095;-57
2021/04/09 05:51:42;;;;;;;15.25;2.13;;;;;;;;;;5061282;28;20066;-55
2021/04/09 05:54:08;;;;;;;12.38;2.40;;;;;;;;;;5065076;28;20043;-56
2021/04/09 05:56:34;;;;;;;13.25;2.10;;;;;;;;;;5063078;28;20029;-54
2021/04/09 05:59:01;;;;;;;17.83;2.33;;;;;;;;;;5059860;28;20053;-57
2021/04/09 06:01:28;;;;;;;12.65;2.10;;;;;;;;;;5065705;28;20041;-57
2021/04/09 06:04:08;;;;;;;8.63;2.17;;;;;;;;;;5061246;28;20079;-57
2021/04/09 06:06:34;;;;;;;13.07;2.45;;;;;;;;;;5068379;28;20122;-55
2021/04/09 06:09:02;;;;;;;10.98;2.70;;;;;;;;;;5068976;28;20094;-57
2021/04/09 06:11:30;;;;;;;12.93;3.28;;;;;;;;;;5071114;28;20048;-57
2021/04/09 06:13:56;;;;;;;;;;;;;;;;;;5063197;28;20049;-54
2021/04/09 06:16:22;;;;;;;12.63;2.42;;;;;;;;;;5066604;28;20780;-56
2021/04/09 06:18:48;;;;;;;21.50;2.40;;;;;;;;;;5061067;28;20036;-57
2021/04/09 06:21:15;;;;;;;19.53;1.93;;;;;;;;;;5066702;28;20060;-57
2021/04/09 06:23:41;;;;;;;20.30;3.15;;;;;;;;;;5062228;28;21009;-57
2021/04/09 06:26:07;;;;;;;25.35;2.88;;;;;;;;;;5066748;28;20037;-57
2021/04/09 06:28:34;;;;;;;23.73;3.28;;;;;;;;;;5066223;28;20049;-57
2021/04/09 06:31:00;;;;;;;16.05;3.00;;;;;;;;;;5062811;28;20098;-58
2021/04/09 06:33:37;;;;;;;17.67;2.47;;;;;;;;;;5061731;28;20059;-57
2021/04/09 06:36:04;;;;;;;29.45;4.32;;;;;;;;;;5064905;28;20033;-57
2021/04/09 06:38:30;;;;;;;24.20;3.70;;;;;;;;;;5061760;28;20439;-56
2021/04/09 06:40:56;;;;;;;21.52;3.53;;;;;;;;;;5062384;28;20118;-58
2021/04/09 06:43:24;;;;;;;28.48;3.40;;;;;;;;;;5047702;28;20501;-57
2021/04/09 06:45:50;;;;;;;34.60;5.45;;;;;;;;;;5059586;28;20059;-57
2021/04/09 06:48:17;;;;;;;;;;;;;;;;;;5065248;28;20040;-57
2021/04/09 06:50:44;;;;;;;24.83;3.90;;;;;;;;;;5064312;28;19920;-54
2021/04/09 06:53:14;;;;;;;33.37;5.20;;;;;;;;;;5065130;28;20041;-58
2021/04/09 06:55:42;;;;;;;27.67;3.85;;;;;;;;;;5061840;28;20041;-58
2021/04/09 06:58:09;;;;;;;24.92;4.15;;;;;;;;;;5072650;28;20067;-58
2021/04/09 07:00:36;;;;;;;28.88;3.67;;;;;;;;;;5074244;28;20049;-56
2021/04/09 07:03:02;;;;;;;34.33;5.50;;;;;;;;;;5065661;28;20080;-58
2021/04/09 07:05:28;;;;;;;25.67;4.85;;;;;;;;;;5064036;28;20048;-58
2021/04/09 07:07:54;;;;;;;28.65;4.18;;;;;;;;;;5068207;28;20037;-58
2021/04/09 07:10:20;;;;;;;27.42;3.83;;;;;;;;;;5070987;28;20123;-58
2021/04/09 07:12:47;;;;;;;35.88;4.88;;;;;;;;;;5062622;28;20416;-58
2021/04/09 07:15:17;;;;;;;29.73;4.18;;;;;;;;;;5064475;28;20052;-58
2021/04/09 07:17:45;;;;;;;29.65;4.95;;;;;;;;;;5072527;28;20043;-58
2021/04/09 07:20:11;;;;;;;;;;;;;;;;;;5074044;28;20626;-58
2021/04/09 07:22:38;;;;;;;32.35;4.45;;;;;;;;;;5068300;28;19965;-57
2021/04/09 07:25:05;;;;;;;35.83;5.10;;;;;;;;;;5069958;28;20442;-56
2021/04/09 07:27:31;;;;;;;;;;;;;;;;;;5069103;28;20094;-58
2021/04/09 07:29:58;;;;;;;19.27;4.00;;;;;;;;;;5066997;28;20411;-58
2021/04/09 07:32:25;;;;;;;26.15;4.28;;;;;;;;;;5067976;28;20130;-57
2021/04/09 07:34:52;;;;;;;;;;;;;;;;;;5065652;28;20094;-58
2021/04/09 07:37:22;;;;;;;34.70;4.47;;;;;;;;;;5068133;28;19920;-58
2021/04/09 07:39:54;;;;;;;22.70;4.10;;;;;;;;;;5061658;28;20095;-57
2021/04/09 07:42:28;;;;;;;24.17;5.05;;;;;;;;;;5067389;28;20082;-58
2021/04/09 07:44:59;;;;;;;31.67;4.20;;;;;;;;;;5062162;28;20052;-58
2021/04/09 07:47:27;;;;;;;29.92;4.10;;;;;;;;;;5064941;28;20051;-59
2021/04/09 07:50:08;;;;;;;23.65;3.40;;;;;;;;;;5067635;28;20043;-58
2021/04/09 07:52:39;;;;;;;16.05;2.90;;;;;;;;;;5066796;28;20106;-58
2021/04/09 07:55:14;;;;;;;20.73;3.40;;;;;;;;;;5062847;28;20049;-58
2021/04/09 07:57:41;;;;;;;25.30;4.22;;;;;;;;;;5062189;28;20397;-58
2021/04/09 08:00:18;;;;;;;30.10;4.90;;;;;;;;;;5061561;28;20479;-58
2021/04/09 08:02:44;;;;;;;18.27;3.05;;;;;;;;;;5063469;28;20048;-58
2021/04/09 08:05:12;;;;;;;33.53;4.38;;;;;;;;;;5062425;28;20067;-59
2021/04/09 08:07:41;;;;;;;36.47;4.32;;;;;;;;;;5044574;28;20064;-58
2021/04/09 08:10:09;;;;;;;30.98;4.82;;;;;;;;;;5061131;28;20059;-58
2021/04/09 08:12:36;;;;;;;31.60;4.25;;;;;;;;;;5063768;28;20044;-58
2021/04/09 08:15:13;;;;;;;16.13;3.30;;;;;;;;;;5058261;28;20732;-59
2021/04/09 08:17:39;;;;;;;25.17;4.55;;;;;;;;;;5064524;28;20143;-59
2021/04/09 08:20:13;;;;;;;32.63;4.07;;;;;;;;;;5067071;28;20044;-58
2021/04/09 08:22:39;;;;;;;32.95;5.68;;;;;;;;;;5064477;28;20052;-59
2021/04/09 08:25:06;;;;;;;17.13;3.25;;;;;;;;;;5064850;28;20049;-59
2021/04/09 08:27:33;;;;;;;34.40;4.13;;;;;;;;;;5059490;28;20046;-59
2021/04/09 08:30:00;;;;;;;24.20;3.45;;;;;;;;;;5066047;28;20127;-59
2021/04/09 08:32:27;;;;;;;21.17;4.15;;;;;;;;;;5058856;28;20501;-59
2021/04/09 08:34:54;;;;;;;30.40;5.10;;;;;;;;;;5054545;28;20491;-59
2021/04/09 08:37:20;;;;;;;22.60;4.05;;;;;;;;;;5059756;28;20052;-59
2021/04/09 08:39:47;;;;;;;33.00;4.43;;;;;;;;;;5067448;28;20135;-59
2021/04/09 08:42:15;;;;;;;28.20;4.28;;;;;;;;;;5058517;28;20040;-59
2021/04/09 08:44:42;;;;;;;31.67;4.10;;;;;;;;;;5059191;28;20049;-59
2021/04/09 08:47:10;;;;;;;42.83;5.13;;;;;;;;;;5065355;28;20045;-58
2021/04/09 08:49:36;;;;;;;36.90;5.32;;;;;;;;;;5064558;28;20041;-59
2021/04/09 08:52:05;;;;;;;22.98;3.95;;;;;;;;;;5065351;28;20048;-58
2021/04/09 08:54:32;;;;;;;25.67;4.22;;;;;;;;;;5064613;28;20044;-59
2021/04/09 08:56:59;;;;;;;26.27;4.50;;;;;;;;;;5064445;28;20047;-59
2021/04/09 08:59:38;;;;;;;40.90;5.40;;;;;;;;;;5058812;28;20353;-59
2021/04/09 09:02:30;;;;;;;27.63;5.38;;;;;;;;;;5059892;28;20102;-59
2021/04/09 09:04:58;;;;;;;32.55;5.20;;;;;;;;;;5064025;28;20044;-59
2021/04/09 09:07:43;;;;;;;29.42;5.50;;;;;;;;;;5066359;28;20094;-59
2021/04/09 09:10:22;;;;;;;35.15;5.22;;;;;;;;;;5059777;28;20051;-58
2021/04/09 09:13:11;;;;;;;31.80;4.88;;;;;;;;;;5067099;28;20070;-57
2021/04/09 09:15:51;;;;;;;34.85;6.05;;;;;;;;;;5064564;28;20052;-58
2021/04/09 09:18:21;;;;;;;46.15;6.30;;;;;;;;;;5063146;28;20076;-59
2021/04/09 09:21:03;;;;;;;27.25;5.13;;;;;;;;;;5060274;28;20088;-58
2021/04/09 09:23:43;;;;;;;28.20;4.47;;;;;;;;;;5063642;28;20412;-56
2021/04/09 09:26:28;;;;;;;32.28;5.20;;;;;;;;;;5062318;28;20497;-56
2021/04/09 09:29:14;;;;;;;26.23;4.57;;;;;;;;;;5060474;28;20041;-58
2021/04/09 09:31:42;;;;;;;31.27;5.13;;;;;;;;;;5071188;28;20052;-59
2021/04/09 09:34:32;;;;;;;32.15;4.65;;;;;;;;;;5064461;28;20522;-56
2021/04/09 09:37:09;;;;;;;34.85;4.70;;;;;;;;;;5061812;28;20076;-58
2021/04/09 09:39:42;;;;;;;18.58;4.03;;;;;;;;;;5066975;28;20048;-58
2021/04/09 09:42:10;;;;;;;40.95;4.97;;;;;;;;;;5063549;28;20043;-58
2021/04/09 09:44:39;;;;;;;45.15;6.15;;;;;;;;;;5064692;28;20037;-58
2021/04/09 09:47:17;;;;;;;40.53;4.93;;;;;;;;;;5062218;28;20460;-58
2021/04/09 09:52:44;;;;;;;40.50;7.50;;;;;;;;;;5068842;28;20567;-58
2021/04/09 09:55:11;;;;;;;31.33;4.85;;;;;;;;;;5069345;28;20111;-56
2021/04/09 09:57:42;;;;;;;39.58;4.82;;;;;;;;;;5066425;28;20053;-57
2021/04/09 10:00:08;;;;;;;36.40;5.93;;;;;;;;;;5061341;28;20041;-58
2021/04/09 10:02:35;;;;;;;27.03;5.60;;;;;;;;;;5062331;28;20044;-57
2021/04/09 10:05:01;;;;;;;46.42;6.47;;;;;;;;;;5065220;28;20042;-59
2021/04/09 10:07:28;;;;;;;44.80;5.25;;;;;;;;;;5063659;28;20451;-59
2021/04/09 10:09:54;;;;;;;22.58;4.53;;;;;;;;;;5067405;28;20040;-59
2021/04/09 10:12:23;;;;;;;25.80;5.55;;;;;;;;;;5065617;28;20119;-58
2021/04/09 10:14:49;;;;;;;23.77;4.75;;;;;;;;;;5048601;28;20082;-57
2021/04/09 10:17:16;;;;;;;34.90;4.30;;;;;;;;;;5067378;28;20056;-58
2021/04/09 10:19:57;;;;;;;26.33;3.63;;;;;;;;;;5066010;28;20456;-57
2021/04/09 10:22:24;;;;;;;26.60;3.95;;;;;;;;;;5069578;28;20591;-58
2021/04/09 10:24:50;;;;;;;21.40;3.45;;;;;;;;;;5061864;28;20044;-58
2021/04/09 10:27:16;;;;;;;27.02;4.93;;;;;;;;;;5060659;28;20045;-57
2021/04/09 10:29:43;;;;;;;31.85;5.22;;;;;;;;;;5065610;28;20463;-57
2021/04/09 10:32:22;;;;;;;24.73;4.45;;;;;;;;;;5061688;28;20123;-57
2021/04/09 10:34:48;;;;;;;24.83;3.95;;;;;;;;;;5065753;28;20117;-59
2021/04/09 10:37:22;;;;;;;29.88;4.82;;;;;;;;;;5068088;28;20126;-57
2021/04/09 10:39:49;;;;;;;22.00;4.45;;;;;;;;;;5063794;28;20797;-58
2021/04/09 10:42:16;;;;;;;20.70;3.28;;;;;;;;;;5070257;28;20131;-57
2021/04/09 10:44:42;;;;;;;38.38;5.97;;;;;;;;;;5067622;28;20048;-58
2021/04/09 10:47:10;;;;;;;18.80;3.95;;;;;;;;;;5052530;28;20048;-58
2021/04/09 10:49:38;;;;;;;23.92;4.65;;;;;;;;;;5067379;28;20040;-58
2021/04/09 10:52:05;;;;;;;20.10;4.47;;;;;;;;;;5065032;28;20048;-58
2021/04/09 10:54:31;;;;;;;24.02;4.75;;;;;;;;;;5061355;28;20538;-58
2021/04/09 10:57:03;;;;;;;33.58;4.65;;;;;;;;;;5069037;28;20035;-58
2021/04/09 10:59:33;;;;;;;27.00;3.72;;;;;;;;;;5064874;28;20126;-58
2021/04/09 11:01:59;;;;;;;40.45;6.90;;;;;;;;;;5060113;28;20118;-57
2021/04/09 11:04:26;;;;;;;36.80;6.57;;;;;;;;;;5069387;28;20050;-58
2021/04/09 11:07:08;;;;;;;15.73;3.60;;;;;;;;;;5062062;28;20051;-57
2021/04/09 11:09:44;;;;;;;24.98;4.93;;;;;;;;;;5064867;28;20443;-58
2021/04/09 11:12:18;;;;;;;34.88;6.03;;;;;;;;;;5065830;28;20492;-57
2021/04/09 11:14:45;;;;;;;30.02;5.53;;;;;;;;;;5065811;28;20044;-58
2021/04/09 11:17:21;;;;;;;32.38;6.07;;;;;;;;;;5064854;28;20446;-58
2021/04/09 11:19:52;;;;;;;40.72;6.28;;;;;;;;;;5065732;28;20467;-56
2021/04/09 11:22:18;;;;;;;29.63;5.30;;;;;;;;;;5067992;28;20369;-58
2021/04/09 11:24:55;;;;;;;31.27;5.15;;;;;;;;;;5066388;28;20041;-59
2021/04/09 11:27:22;;;;;;;23.40;4.78;;;;;;;;;;5065651;28;20040;-58
2021/04/09 11:29:48;;;;;;;11.02;3.65;;;;;;;;;;5044343;28;20048;-59
2021/04/09 11:32:15;;;;;;;;;;;;;;;;;;5041268;28;20575;-57
2021/04/09 11:34:43;;;;;;;17.35;3.28;;;;;;;;;;5041095;28;20358;-59
2021/04/09 11:37:10;;;;;;;29.02;4.05;;;;;;;;;;5046490;28;20041;-57
2021/04/09 11:39:50;;;;;;;18.37;2.63;;;;;;;;;;5045677;28;20033;-57
2021/04/09 11:42:26;;;;;;;33.38;7.25;;;;;;;;;;5041422;28;20337;-58
2021/04/09 11:44:52;;;;;;;27.98;6.25;;;;;;;;;;5047426;28;20076;-58
2021/04/09 11:47:27;;;;;;;20.50;5.50;;;;;;;;;;5044239;28;20046;-58
2021/04/09 11:50:08;;;;;;;26.85;4.82;;;;;;;;;;5041850;28;20417;-57
2021/04/09 11:52:58;;;;;;;23.35;4.03;;;;;;;;;;5033388;28;20104;-58
2021/04/09 11:55:32;;;;;;;39.65;4.80;;;;;;;;;;5034618;28;20056;-58
2021/04/09 11:58:03;;;;;;;28.50;4.70;;;;;;;;;;5043327;28;20080;-57
2021/04/09 12:00:31;;;;;;;20.77;3.90;;;;;;;;;;5046060;28;20036;-56
2021/04/09 12:02:59;;;;;;;26.50;3.95;;;;;;;;;;5042607;28;20837;-57
2021/04/09 12:05:27;;;;;;;29.38;4.38;;;;;;;;;;5048749;28;20131;-57
2021/04/09 12:07:53;;;;;;;22.23;3.65;;;;;;;;;;5042863;28;20037;-58
2021/04/09 12:10:20;;;;;;;16.65;4.15;;;;;;;;;;5039925;28;20041;-58
2021/04/09 12:12:47;;;;;;;19.42;3.47;;;;;;;;;;5045726;28;20435;-57
2021/04/09 12:15:14;;;;;;;12.63;2.40;;;;;;;;;;5044125;28;20060;-56
2021/04/09 12:17:41;;;;;;;30.05;4.65;;;;;;;;;;5041781;28;20056;-55
2021/04/09 12:20:09;;;;;;;23.67;3.88;;;;;;;;;;5039134;28;20083;-58
2021/04/09 12:22:35;;;;;;;;;;;;;;;;;;5029060;28;20541;-57
2021/04/09 12:25:02;;;;;;;14.00;2.33;;;;;;;;;;5046782;28;20007;-57
2021/04/09 12:27:29;;;;;;;23.92;3.70;;;;;;;;;;5049512;28;20072;-58
2021/04/09 12:29:55;;;;;;;18.13;3.33;;;;;;;;;;5043205;28;20102;-57
2021/04/09 12:32:21;;;;;;;18.42;3.38;;;;;;;;;;5048466;28;20037;-55
2021/04/09 12:34:47;;;;;;;18.50;3.25;;;;;;;;;;5041956;28;20499;-58
2021/04/09 12:37:13;;;;;;;18.65;3.42;;;;;;;;;;5041343;28;20072;-58
2021/04/09 12:39:40;;;;;;;24.77;4.25;;;;;;;;;;5044087;28;20123;-58
2021/04/09 12:42:07;;;;;;;14.25;2.65;;;;;;;;;;5046096;28;20052;-56
2021/04/09 12:44:33;;;;;;;19.80;3.78;;;;;;;;;;5028869;28;20799;-58
2021/04/09 12:47:00;;;;;;;14.18;2.72;;;;;;;;;;5039331;28;20048;-57
2021/04/09 12:49:27;;;;;;;27.77;3.75;;;;;;;;;;5040654;28;20036;-57
2021/04/09 12:51:53;;;;;;;18.70;3.33;;;;;;;;;;5043703;28;20394;-58
2021/04/09 12:54:19;;;;;;;19.63;3.42;;;;;;;;;;5049122;28;20036;-57
2021/04/09 12:56:46;;;;;;;14.75;2.95;;;;;;;;;;5045606;28;20040;-56
2021/04/09 12:59:15;;;;;;;19.45;3.03;;;;;;;;;;5041861;28;20048;-58
2021/04/09 13:01:41;;;;;;;22.75;3.63;;;;;;;;;;5044373;28;20508;-57
2021/04/09 13:04:07;;;;;;;22.25;4.18;;;;;;;;;;5041969;28;20037;-58
2021/04/09 13:06:33;;;;;;;17.08;3.13;;;;;;;;;;5041597;28;20068;-56
2021/04/09 13:08:59;;;;;;;25.60;3.75;;;;;;;;;;5040172;28;20069;-58
2021/04/09 13:11:26;;;;;;;11.93;2.90;;;;;;;;;;5040144;28;20508;-58
2021/04/09 13:13:54;;;;;;;17.23;2.85;;;;;;;;;;5046791;28;20045;-58
2021/04/09 13:16:21;;;;;;;16.63;3.03;;;;;;;;;;5036865;28;20147;-57
2021/04/09 13:18:47;;;;;;;17.33;3.05;;;;;;;;;;5045120;28;20029;-58
2021/04/09 13:21:14;;;;;;;14.95;2.80;;;;;;;;;;5041809;28;20077;-57
2021/04/09 13:23:50;;;;;;;19.83;3.05;;;;;;;;;;5040296;28;20140;-57
2021/04/09 13:26:17;;;;;;;17.58;3.72;;;;;;;;;;5044018;28;20438;-58
2021/04/09 13:28:43;;;;;;;17.52;3.45;;;;;;;;;;5049656;28;20053;-57
2021/04/09 13:31:09;;;;;;;20.75;3.53;;;;;;;;;;5057248;28;20037;-55
2021/04/09 13:33:37;;;;;;;22.10;3.95;;;;;;;;;;5057083;28;20078;-57
2021/04/09 13:36:05;;;;;;;20.65;3.30;;;;;;;;;;5062692;28;20801;-57
2021/04/09 13:38:31;;;;;;;18.83;3.33;;;;;;;;;;5062452;28;20492;-57
2021/04/09 13:40:58;;;;;;;22.50;2.90;;;;;;;;;;5058737;28;20092;-57
2021/04/09 13:43:24;;;;;;;11.68;2.35;;;;;;;;;;5060127;28;20036;-57
2021/04/09 13:45:51;;;;;;;17.38;3.20;;;;;;;;;;5065755;28;20044;-57
2021/04/09 13:48:19;;;;;;;11.25;2.67;;;;;;;;;;5058355;28;20064;-56
2021/04/09 13:50:46;;;;;;;16.77;2.67;;;;;;;;;;5062775;28;20042;-55
2021/04/09 13:53:12;;;;;;;10.50;2.13;;;;;;;;;;5060457;28;20044;-56
2021/04/09 13:55:39;;;;;;;20.98;3.17;;;;;;;;;;5059229;28;20037;-54
2021/04/09 13:58:05;;;;;;;25.67;4.20;;;;;;;;;;5057326;28;20037;-58
2021/04/09 14:00:32;;;;;;;16.05;3.53;;;;;;;;;;5056237;28;20719;-57
2021/04/09 14:02:59;;;;;;;12.52;2.38;;;;;;;;;;5061880;28;20084;-56
2021/04/09 14:05:26;;;;;;;13.30;2.88;;;;;;;;;;5062446;28;20059;-56
2021/04/09 14:07:52;;;;;;;15.45;3.83;;;;;;;;;;5055403;28;20379;-55
2021/04/09 14:10:19;;;;;;;20.58;4.70;;;;;;;;;;5056711;28;20048;-56
2021/04/09 14:12:45;;;;;;;14.88;3.47;;;;;;;;;;5060004;28;20510;-52
2021/04/09 14:15:12;;;;;;;16.77;2.67;;;;;;;;;;5066189;28;20554;-56
2021/04/09 14:17:39;;;;;;;17.60;3.47;;;;;;;;;;5066448;28;20048;-57
2021/04/09 14:20:06;;;;;;;19.30;3.38;;;;;;;;;;5063739;28;20032;-56
2021/04/09 14:22:33;;;;;;;17.15;3.13;;;;;;;;;;5067756;28;20044;-57
2021/04/09 14:25:01;;;;;;;14.63;3.53;;;;;;;;;;5064046;28;20045;-54
2021/04/09 14:27:28;;;;;;;16.15;3.13;;;;;;;;;;5064754;28;20052;-56
2021/04/09 14:29:54;;;;;;;21.13;3.67;;;;;;;;;;5062638;28;20114;-56
2021/04/09 14:32:20;;;;;;;20.50;3.10;;;;;;;;;;5057532;28;20045;-56
2021/04/09 14:34:47;;;;;;;19.52;3.08;;;;;;;;;;5066685;28;20040;-56
2021/04/09 14:37:13;;;;;;;16.87;2.90;;;;;;;;;;5063734;28;20048;-57
2021/04/09 14:39:40;;;;;;;18.83;3.28;;;;;;;;;;5064340;28;20036;-60
2021/04/09 14:42:06;;;;;;;18.33;3.25;;;;;;;;;;5062590;28;20106;-55
2021/04/09 14:44:33;;;;;;;23.63;3.35;;;;;;;;;;5065987;28;20574;-56
2021/04/09 14:46:59;;;;;;;24.63;3.15;;;;;;;;;;5068659;28;20068;-56
2021/04/09 14:49:26;;;;;;;32.50;5.03;;;;;;;;;;5068036;28;20372;-53